Time;durP1;ratioP1;P1;durP2;ratioP2;P2;SDS_P1;SDS_P2;PMS_P1;PMS_P2;Temp;Humidity;BMP_temperature;BMP_pressure;BME280_temperature;BME280_humidity;BME280_pressure;Samples;Min_cycle;Max_cycle;Signal;HPM_P1;HPM_P2
2023/07/21 00:02:25;;;;;;;3.95;1.25;;;13.00;99.90;;;;;;5036019;28;20197;-83
2023/07/21 00:04:51;;;;;;;1.15;1.00;;;13.10;99.90;;;;;;5037818;28;20174;-83
2023/07/21 00:07:16;;;;;;;3.20;1.70;;;13.10;99.90;;;;;;5036713;28;20205;-83
2023/07/21 00:09:43;;;;;;;3.85;1.45;;;13.20;99.90;;;;;;5036303;28;20206;-82
2023/07/21 00:12:09;;;;;;;2.35;1.25;;;13.10;99.90;;;;;;5037370;28;20174;-83
2023/07/21 00:14:35;;;;;;;1.65;1.10;;;13.10;99.90;;;;;;5035495;28;20522;-83
2023/07/21 00:17:04;;;;;;;2.78;1.10;;;13.10;99.90;;;;;;5037440;28;20158;-84
2023/07/21 00:19:30;;;;;;;5.70;1.38;;;13.10;99.90;;;;;;5036303;28;20235;-83
2023/07/21 00:21:56;;;;;;;1.77;1.20;;;13.10;99.90;;;;;;5036052;28;20205;-83
2023/07/21 00:24:22;;;;;;;3.63;1.38;;;13.10;99.90;;;;;;5036012;28;20178;-83
2023/07/21 00:26:48;;;;;;;2.28;1.40;;;13.10;99.90;;;;;;5035955;28;20178;-83
2023/07/21 00:29:13;;;;;;;1.10;1.00;;;13.10;99.90;;;;;;5035787;28;20664;-83
2023/07/21 00:31:39;;;;;;;1.95;1.33;;;13.10;99.90;;;;;;5035992;28;20267;-82
2023/07/21 00:34:08;;;;;;;1.55;1.20;;;13.10;99.90;;;;;;5024462;28;20532;-83
2023/07/21 00:36:34;;;;;;;3.50;1.33;;;13.10;99.90;;;;;;5015869;28;20190;-83
2023/07/21 00:38:59;;;;;;;1.98;1.23;;;13.10;99.90;;;;;;5031696;28;20274;-83
2023/07/21 00:41:26;;;;;;;2.65;1.08;;;13.20;99.90;;;;;;5035605;28;20179;-83
2023/07/21 00:43:52;;;;;;;4.63;1.17;;;13.10;99.90;;;;;;5035797;28;20189;-83
2023/07/21 00:46:18;;;;;;;3.42;1.13;;;13.10;99.90;;;;;;5035422;28;20178;-83
2023/07/21 00:48:44;;;;;;;4.00;1.40;;;13.10;99.90;;;;;;5035434;28;20359;-83
2023/07/21 00:51:10;;;;;;;6.20;1.10;;;13.10;99.90;;;;;;5035741;28;20669;-83
2023/07/21 00:53:36;;;;;;;3.03;1.60;;;13.10;99.90;;;;;;5036987;28;20184;-83
2023/07/21 00:56:04;;;;;;;3.20;1.30;;;13.20;99.90;;;;;;5035654;28;20209;-83
2023/07/21 00:58:30;;;;;;;1.83;1.13;;;13.20;99.90;;;;;;5035440;28;20244;-83
2023/07/21 01:00:56;;;;;;;2.72;1.27;;;13.20;99.90;;;;;;5035597;28;20210;-83
2023/07/21 01:03:22;;;;;;;1.88;1.30;;;13.30;99.90;;;;;;5035508;28;20213;-83
2023/07/21 01:05:52;;;;;;;2.63;1.48;;;13.40;99.90;;;;;;5035662;28;20183;-83
2023/07/21 01:08:19;;;;;;;3.67;1.42;;;13.40;99.90;;;;;;5035484;28;20245;-84
2023/07/21 01:10:47;;;;;;;3.30;1.50;;;13.50;99.90;;;;;;5035353;28;20232;-84
2023/07/21 01:13:13;;;;;;;4.85;1.20;;;13.50;99.90;;;;;;5034523;28;20178;-83
2023/07/21 01:15:45;;;;;;;1.75;1.13;;;13.50;99.90;;;;;;5035288;28;20237;-84
2023/07/21 01:18:14;;;;;;;3.00;1.20;;;13.50;99.90;;;;;;5035254;28;20253;-83
2023/07/21 01:20:40;;;;;;;4.93;1.63;;;13.50;99.90;;;;;;5034871;28;20186;-84
2023/07/21 01:23:15;;;;;;;1.85;1.08;;;13.60;99.90;;;;;;5035073;28;20218;-83
2023/07/21 01:25:42;;;;;;;4.13;1.30;;;13.50;99.90;;;;;;5036029;28;20679;-84
2023/07/21 01:28:12;;;;;;;2.75;1.23;;;13.60;99.90;;;;;;5034974;28;20232;-83
2023/07/21 01:30:39;;;;;;;2.42;1.27;;;13.50;99.90;;;;;;5035052;28;20186;-84
2023/07/21 01:33:07;;;;;;;1.85;1.50;;;13.60;99.90;;;;;;5034942;28;20201;-83
2023/07/21 01:35:34;;;;;;;2.47;1.40;;;13.60;99.90;;;;;;5034951;28;20275;-84
2023/07/21 01:38:01;;;;;;;7.25;1.48;;;13.70;99.90;;;;;;5034703;28;20180;-83
2023/07/21 01:40:27;;;;;;;3.63;1.35;;;13.70;99.90;;;;;;5034593;28;20509;-83
2023/07/21 01:42:53;;;;;;;1.63;1.20;;;13.70;99.90;;;;;;5034644;28;20178;-83
2023/07/21 01:45:19;;;;;;;2.95;1.20;;;13.70;99.90;;;;;;5034712;28;20213;-84
2023/07/21 01:47:46;;;;;;;2.70;1.30;;;13.70;99.90;;;;;;5034398;28;20174;-84
2023/07/21 01:50:15;;;;;;;3.45;1.33;;;13.70;99.90;;;;;;5034412;28;20210;-83
2023/07/21 01:52:43;;;;;;;2.45;1.48;;;13.70;99.90;;;;;;5035599;28;20208;-83
2023/07/21 01:55:32;;;;;;;2.85;1.15;;;13.70;99.90;;;;;;5035644;28;20640;-83
2023/07/21 01:58:03;;;;;;;3.90;1.48;;;13.70;99.90;;;;;;5034412;28;20679;-84
2023/07/21 02:00:36;;;;;;;7.22;1.75;;;13.70;99.90;;;;;;5034111;28;20529;-84
2023/07/21 02:03:04;;;;;;;2.88;1.42;;;13.70;99.90;;;;;;5034057;28;20175;-83
2023/07/21 02:05:30;;;;;;;4.88;1.40;;;13.70;99.90;;;;;;5034101;28;20174;-83
2023/07/21 02:07:56;;;;;;;5.35;1.50;;;13.70;99.90;;;;;;5034167;28;20265;-83
2023/07/21 02:10:22;;;;;;;2.28;1.20;;;13.80;99.90;;;;;;5035152;28;20369;-83
2023/07/21 02:12:48;;;;;;;2.40;1.17;;;13.80;99.90;;;;;;5034012;28;20175;-83
2023/07/21 02:15:14;;;;;;;2.15;1.35;;;13.80;99.90;;;;;;5035101;28;20245;-83
2023/07/21 02:17:40;;;;;;;3.78;1.08;;;13.80;99.90;;;;;;5034081;28;20175;-84
2023/07/21 02:20:09;;;;;;;2.97;1.48;;;13.80;99.90;;;;;;5035292;28;20159;-84
2023/07/21 02:22:37;;;;;;;3.42;1.60;;;13.80;99.90;;;;;;5035272;28;20232;-83
2023/07/21 02:25:04;;;;;;;1.45;1.20;;;13.80;99.90;;;;;;5033767;28;20585;-84
2023/07/21 02:27:31;;;;;;;1.83;1.30;;;13.80;99.90;;;;;;5050113;28;20201;-83
2023/07/21 02:29:57;;;;;;;2.15;1.42;;;13.70;99.90;;;;;;5050477;28;20207;-84
2023/07/21 02:32:23;;;;;;;2.13;1.20;;;13.80;99.90;;;;;;5050383;28;20278;-84
2023/07/21 02:34:50;;;;;;;3.55;1.50;;;13.80;99.90;;;;;;5033919;28;20185;-84
2023/07/21 02:37:16;;;;;;;3.22;1.27;;;13.80;99.90;;;;;;5050496;28;20182;-84
2023/07/21 02:39:41;;;;;;;1.63;1.10;;;13.70;99.90;;;;;;5050379;28;20190;-84
2023/07/21 02:42:07;;;;;;;3.25;1.63;;;13.70;99.90;;;;;;5050413;28;20178;-84
2023/07/21 02:44:33;;;;;;;2.53;1.30;;;13.70;99.90;;;;;;5050377;28;20213;-83
2023/07/21 02:46:59;;;;;;;2.22;1.40;;;13.70;99.90;;;;;;5033572;28;20186;-84
2023/07/21 02:49:24;;;;;;;2.15;1.40;;;13.70;99.90;;;;;;5050068;28;20297;-83
2023/07/21 02:51:50;;;;;;;5.47;1.70;;;13.70;99.90;;;;;;5050126;28;20664;-84
2023/07/21 02:54:16;;;;;;;2.28;1.33;;;13.70;99.90;;;;;;5049824;28;20186;-84
2023/07/21 02:56:42;;;;;;;2.85;1.20;;;13.70;99.90;;;;;;5049923;28;20191;-84
2023/07/21 02:59:08;;;;;;;1.98;1.50;;;13.70;99.90;;;;;;5049912;28;20175;-85
2023/07/21 03:01:35;;;;;;;1.83;1.33;;;13.70;99.90;;;;;;5049744;28;20183;-85
2023/07/21 03:04:03;;;;;;;1.48;1.30;;;13.60;99.90;;;;;;5034690;28;20179;-85
2023/07/21 03:06:30;;;;;;;1.88;1.38;;;13.60;99.90;;;;;;5050028;28;20495;-85
2023/07/21 03:08:58;;;;;;;3.83;1.40;;;13.40;99.90;;;;;;5049947;28;20213;-84
2023/07/21 03:11:24;;;;;;;3.58;1.63;;;13.50;99.90;;;;;;5049947;28;20197;-83
2023/07/21 03:13:50;;;;;;;2.33;1.40;;;13.50;99.90;;;;;;5034450;28;20248;-83
2023/07/21 03:16:16;;;;;;;4.07;1.35;;;13.50;99.90;;;;;;5034271;28;20678;-84
2023/07/21 03:18:42;;;;;;;2.10;1.45;;;13.50;99.90;;;;;;5033198;28;20696;-85
2023/07/21 03:21:08;;;;;;;5.25;2.25;;;13.50;99.90;;;;;;5049779;28;20175;-84
2023/07/21 03:23:33;;;;;;;3.95;1.58;;;13.50;99.90;;;;;;5033067;28;20182;-85
2023/07/21 03:25:59;;;;;;;2.50;1.80;;;13.40;99.90;;;;;;5049756;28;20232;-84
2023/07/21 03:28:26;;;;;;;2.55;1.70;;;13.40;99.90;;;;;;5049389;28;20213;-83
2023/07/21 03:30:59;;;;;;;3.20;1.95;;;13.50;99.90;;;;;;5049490;28;20501;-83
2023/07/21 03:33:25;;;;;;;4.30;1.70;;;13.50;99.90;;;;;;5049729;28;20274;-84
2023/07/21 03:36:04;;;;;;;2.63;1.73;;;13.50;99.90;;;;;;5049116;28;20189;-84
2023/07/21 03:38:37;;;;;;;3.08;1.58;;;13.50;99.90;;;;;;5049659;28;20174;-85
2023/07/21 03:41:05;;;;;;;2.50;1.77;;;13.40;99.90;;;;;;5049418;28;20186;-84
2023/07/21 03:43:31;;;;;;;2.97;1.45;;;13.40;99.90;;;;;;5049524;28;20179;-84
2023/07/21 03:45:58;;;;;;;6.35;1.75;;;13.40;99.90;;;;;;5034148;28;20178;-84
2023/07/21 03:48:25;;;;;;;3.13;1.73;;;13.40;99.90;;;;;;5033629;28;20252;-83
2023/07/21 03:50:55;;;;;;;1.85;1.45;;;13.50;99.90;;;;;;5032399;28;20201;-84
2023/07/21 03:53:21;;;;;;;3.13;1.85;;;13.50;99.90;;;;;;5032897;28;20186;-84
2023/07/21 03:55:47;;;;;;;2.85;1.80;;;13.50;99.90;;;;;;5049334;28;20209;-84
2023/07/21 03:58:13;;;;;;;3.88;1.65;;;13.50;99.90;;;;;;5049548;28;20664;-85
2023/07/21 04:00:42;;;;;;;3.42;1.67;;;13.60;99.90;;;;;;5034012;28;20262;-85
2023/07/21 04:03:08;;;;;;;3.05;1.50;;;13.40;99.90;;;;;;5049252;28;20182;-84
2023/07/21 04:05:34;;;;;;;1.63;1.48;;;13.50;99.90;;;;;;5049564;28;20636;-85
2023/07/21 04:08:00;;;;;;;5.32;2.00;;;13.60;99.90;;;;;;5049373;28;20209;-84
2023/07/21 04:10:26;;;;;;;2.58;1.67;;;13.60;99.90;;;;;;5049183;28;20245;-85
2023/07/21 04:12:52;;;;;;;2.05;1.48;;;13.60;99.90;;;;;;5049318;28;20181;-85
2023/07/21 04:15:17;;;;;;;6.53;2.00;;;13.60;99.90;;;;;;5049019;28;20687;-84
2023/07/21 04:17:43;;;;;;;2.20;1.63;;;13.50;99.90;;;;;;5049380;28;20198;-84
2023/07/21 04:20:10;;;;;;;2.88;1.42;;;13.50;99.90;;;;;;5049281;28;20193;-85
2023/07/21 04:22:36;;;;;;;2.20;1.60;;;13.60;99.90;;;;;;5049133;28;20171;-84
2023/07/21 04:25:02;;;;;;;2.95;1.90;;;13.60;99.90;;;;;;5049160;28;20190;-85
2023/07/21 04:27:31;;;;;;;2.55;1.70;;;13.50;99.90;;;;;;5049156;28;20181;-85
2023/07/21 04:29:56;;;;;;;3.28;1.75;;;13.60;99.90;;;;;;5033417;28;20202;-84
2023/07/21 04:32:23;;;;;;;1.70;1.58;;;13.60;99.90;;;;;;5048882;28;20167;-84
2023/07/21 04:34:48;;;;;;;3.60;1.70;;;13.60;99.90;;;;;;5048987;28;20183;-83
2023/07/21 04:37:14;;;;;;;3.67;1.50;;;13.50;99.90;;;;;;5032775;28;20313;-84
2023/07/21 04:39:40;;;;;;;3.42;1.88;;;13.50;99.90;;;;;;5048999;28;20179;-84
2023/07/21 04:42:06;;;;;;;3.30;1.67;;;13.60;99.90;;;;;;5043777;28;20661;-84
2023/07/21 04:44:32;;;;;;;5.30;2.10;;;13.60;99.90;;;;;;5031570;28;20278;-85
2023/07/21 04:46:58;;;;;;;3.17;2.00;;;13.70;99.90;;;;;;5030790;28;20205;-86
2023/07/21 04:49:24;;;;;;;3.95;1.75;;;13.80;99.90;;;;;;5034073;28;20214;-85
2023/07/21 04:51:50;;;;;;;4.13;1.88;;;13.80;99.90;;;;;;5035366;28;20266;-85
2023/07/21 04:54:16;;;;;;;3.22;2.00;;;13.90;99.90;;;;;;5035216;28;20194;-84
2023/07/21 04:56:43;;;;;;;2.95;1.88;;;13.90;99.90;;;;;;5036025;28;20174;-84
2023/07/21 04:59:09;;;;;;;3.00;1.83;;;13.90;99.90;;;;;;5035742;28;20637;-84
2023/07/21 05:01:35;;;;;;;4.07;2.03;;;13.90;99.90;;;;;;5036882;28;20166;-84
2023/07/21 05:04:01;;;;;;;4.35;1.98;;;14.00;99.90;;;;;;5035709;28;20186;-84
2023/07/21 05:06:27;;;;;;;2.58;1.77;;;14.10;99.90;;;;;;5035672;28;20183;-84
2023/07/21 05:08:52;;;;;;;3.05;1.90;;;14.10;99.90;;;;;;5035408;28;20207;-85
2023/07/21 05:11:18;;;;;;;3.80;1.90;;;14.10;99.90;;;;;;5035570;28;20531;-84
2023/07/21 05:13:48;;;;;;;2.38;1.60;;;14.10;99.90;;;;;;5035513;28;20253;-84
2023/07/21 05:16:14;;;;;;;2.65;1.77;;;14.00;99.90;;;;;;5035334;28;20274;-84
2023/07/21 05:18:40;;;;;;;3.05;1.98;;;14.10;99.90;;;;;;5035457;28;20279;-85
2023/07/21 05:21:06;;;;;;;4.07;2.20;;;14.10;99.90;;;;;;5035262;28;20181;-84
2023/07/21 05:23:32;;;;;;;3.78;1.90;;;14.20;99.90;;;;;;5035237;28;20182;-85
2023/07/21 05:26:01;;;;;;;4.38;2.10;;;14.20;99.90;;;;;;5036391;28;20678;-84
2023/07/21 05:28:28;;;;;;;2.20;1.60;;;14.20;99.90;;;;;;5034816;28;22157;-84
2023/07/21 05:30:56;;;;;;;3.63;1.70;;;14.20;99.90;;;;;;5035026;28;20178;-85
2023/07/21 05:33:22;;;;;;;4.68;2.13;;;14.30;99.90;;;;;;5035016;28;20178;-85
2023/07/21 05:35:48;;;;;;;4.97;1.80;;;14.40;99.90;;;;;;5035343;28;20507;-84
2023/07/21 05:38:13;;;;;;;3.08;1.77;;;14.40;99.90;;;;;;5035151;28;20179;-85
2023/07/21 05:40:41;;;;;;;2.03;1.42;;;14.40;99.90;;;;;;5035245;28;20494;-84
2023/07/21 05:43:07;;;;;;;4.03;2.00;;;14.40;99.90;;;;;;5034887;28;20174;-84
2023/07/21 05:45:36;;;;;;;3.40;1.88;;;14.40;99.90;;;;;;5036116;28;20258;-84
2023/07/21 05:48:01;;;;;;;3.13;1.38;;;14.50;99.90;;;;;;5035005;28;20206;-85
2023/07/21 05:50:27;;;;;;;4.78;1.95;;;14.50;99.90;;;;;;5034690;28;20248;-84
2023/07/21 05:52:53;;;;;;;3.15;2.00;;;14.50;99.90;;;;;;5034841;28;20171;-83
2023/07/21 05:55:19;;;;;;;3.80;2.05;;;14.50;99.90;;;;;;5034566;28;20183;-83
2023/07/21 05:57:45;;;;;;;3.05;1.98;;;14.60;99.90;;;;;;5034680;28;20179;-84
2023/07/21 06:00:14;;;;;;;3.60;1.55;;;14.70;99.90;;;;;;5034129;28;20598;-84
2023/07/21 06:02:41;;;;;;;4.80;1.90;;;14.70;99.90;;;;;;5034466;28;20225;-85
2023/07/21 06:05:07;;;;;;;5.88;2.08;;;14.80;99.90;;;;;;5034881;28;20194;-83
2023/07/21 06:07:33;;;;;;;3.10;1.80;;;14.90;99.90;;;;;;5034521;28;20186;-84
2023/07/21 06:09:59;;;;;;;7.32;2.15;;;15.00;99.90;;;;;;5034126;28;20237;-84
2023/07/21 06:12:25;;;;;;;3.92;1.60;;;15.20;99.90;;;;;;5035418;28;20497;-83
2023/07/21 06:14:50;;;;;;;7.25;2.05;;;15.20;99.90;;;;;;5034055;28;20237;-84
2023/07/21 06:17:19;;;;;;;3.05;1.88;;;15.40;99.90;;;;;;5034342;28;20181;-84
2023/07/21 06:19:47;;;;;;;3.67;1.70;;;15.40;99.90;;;;;;5035274;28;20174;-83
2023/07/21 06:22:13;;;;;;;2.78;1.67;;;15.50;99.90;;;;;;5034358;28;20194;-84
2023/07/21 06:24:39;;;;;;;3.72;1.80;;;15.50;99.90;;;;;;5034101;28;20261;-84
2023/07/21 06:27:06;;;;;;;5.63;1.80;;;15.50;99.90;;;;;;5033934;28;20687;-85
2023/07/21 06:29:33;;;;;;;4.82;1.88;;;15.60;99.90;;;;;;5035209;28;20582;-85
2023/07/21 06:31:59;;;;;;;4.65;1.52;;;15.70;99.90;;;;;;5033940;28;20189;-84
2023/07/21 06:34:25;;;;;;;4.90;1.40;;;15.90;99.90;;;;;;5034002;28;20178;-85
2023/07/21 06:36:51;;;;;;;4.68;1.70;;;16.00;99.90;;;;;;5034146;28;20533;-84
2023/07/21 06:39:17;;;;;;;3.47;1.45;;;16.20;99.90;;;;;;5035052;28;20215;-85
2023/07/21 06:41:44;;;;;;;2.58;1.40;;;16.30;99.90;;;;;;5034000;28;20186;-90
2023/07/21 06:44:10;;;;;;;4.25;1.40;;;16.50;99.90;;;;;;5034144;28;20171;-85
2023/07/21 06:46:36;;;;;;;4.32;1.50;;;16.60;99.90;;;;;;5033867;28;20174;-86
2023/07/21 06:49:02;;;;;;;2.20;1.50;;;16.60;99.90;;;;;;5035063;28;20213;-86
2023/07/21 06:51:28;;;;;;;2.80;1.58;;;16.60;99.90;;;;;;5033868;28;20170;-86
2023/07/21 06:53:54;;;;;;;4.65;1.60;;;16.70;99.90;;;;;;5033736;28;20174;-86
2023/07/21 06:56:19;;;;;;;3.33;1.25;;;16.80;99.90;;;;;;5033800;28;20210;-86
2023/07/21 06:58:45;;;;;;;3.38;1.40;;;16.80;99.90;;;;;;5033694;28;20175;-84
2023/07/21 07:01:11;;;;;;;2.97;1.30;;;16.90;99.90;;;;;;5033574;28;20231;-85
2023/07/21 07:03:36;;;;;;;2.40;1.33;;;17.00;99.90;;;;;;5033457;28;20175;-85
2023/07/21 07:06:02;;;;;;;2.70;1.15;;;17.10;99.90;;;;;;5033723;28;20621;-85
2023/07/21 07:08:28;;;;;;;3.90;1.73;;;17.20;99.90;;;;;;5033568;28;20683;-85
2023/07/21 07:10:54;;;;;;;2.67;1.35;;;17.30;99.90;;;;;;5032702;28;20202;-85
2023/07/21 07:13:20;;;;;;;2.55;1.42;;;17.30;99.90;;;;;;5033324;28;20178;-85
2023/07/21 07:15:53;;;;;;;3.45;1.52;;;17.30;99.90;;;;;;5033381;28;20242;-85
2023/07/21 07:18:18;;;;;;;2.78;1.45;;;17.30;99.90;;;;;;5033278;28;20189;-85
2023/07/21 07:20:51;;;;;;;3.75;1.20;;;17.30;99.90;;;;;;5034685;28;20178;-85
2023/07/21 07:23:18;;;;;;;2.35;1.52;;;17.30;99.90;;;;;;5033240;28;20171;-85
2023/07/21 07:25:48;;;;;;;4.85;1.40;;;17.30;99.90;;;;;;5033342;28;20197;-85
2023/07/21 07:28:15;;;;;;;4.35;1.88;;;17.40;99.90;;;;;;5033141;28;20183;-84
2023/07/21 07:30:42;;;;;;;2.00;1.40;;;17.50;99.90;;;;;;5033430;28;20206;-84
2023/07/21 07:33:07;;;;;;;3.35;1.40;;;17.60;99.90;;;;;;5033117;28;20163;-84
2023/07/21 07:35:33;;;;;;;3.65;1.35;;;17.60;99.90;;;;;;5034355;28;20232;-89
2023/07/21 07:37:59;;;;;;;3.22;1.48;;;17.60;99.90;;;;;;5033152;28;20178;-84
2023/07/21 07:40:25;;;;;;;1.67;1.10;;;17.60;99.90;;;;;;5032906;28;20494;-84
2023/07/21 07:42:51;;;;;;;2.58;1.38;;;17.70;99.90;;;;;;5032949;28;20178;-84
2023/07/21 07:45:17;;;;;;;1.55;1.20;;;17.90;99.90;;;;;;5033090;28;20278;-85
2023/07/21 07:47:44;;;;;;;2.45;1.30;;;18.00;99.90;;;;;;5033327;28;20185;-87
2023/07/21 07:50:11;;;;;;;3.75;1.40;;;18.20;99.90;;;;;;5032697;28;20221;-85
2023/07/21 07:52:39;;;;;;;4.72;1.50;;;18.20;99.90;;;;;;5032964;28;20293;-86
2023/07/21 07:55:06;;;;;;;2.95;1.48;;;18.30;99.90;;;;;;5032906;28;20193;-85
2023/07/21 07:57:32;;;;;;;2.47;1.42;;;18.30;99.90;;;;;;5032911;28;20178;-85
2023/07/21 07:59:57;;;;;;;2.00;1.25;;;18.30;99.90;;;;;;5032998;28;20201;-86
2023/07/21 08:02:23;;;;;;;4.28;1.75;;;18.40;99.90;;;;;;5034199;28;20312;-85
2023/07/21 08:04:49;;;;;;;3.72;1.20;;;18.50;99.90;;;;;;5032984;28;20201;-85
2023/07/21 08:07:16;;;;;;;3.97;1.45;;;18.60;99.90;;;;;;5032925;28;20181;-86
2023/07/21 08:09:41;;;;;;;3.70;1.30;;;18.80;99.90;;;;;;5032471;28;20305;-85
2023/07/21 08:12:08;;;;;;;3.95;1.27;;;18.80;99.90;;;;;;5032577;28;20269;-85
2023/07/21 08:14:33;;;;;;;3.92;1.77;;;19.00;99.90;;;;;;5032717;28;20614;-85
2023/07/21 08:17:02;;;;;;;1.60;1.20;;;19.10;99.90;;;;;;5032933;28;20193;-85
2023/07/21 08:19:32;;;;;;;1.77;1.20;;;19.20;99.90;;;;;;5032655;28;20217;-86
2023/07/21 08:22:05;;;;;;;4.43;1.20;;;19.30;99.90;;;;;;5035185;28;20252;-85
2023/07/21 08:24:32;;;;;;;3.92;1.58;;;19.30;99.90;;;;;;5036508;28;20174;-86
2023/07/21 08:27:02;;;;;;;3.35;1.27;;;19.40;99.90;;;;;;5036650;28;20675;-85
2023/07/21 08:29:28;;;;;;;3.53;1.30;;;19.50;99.90;;;;;;5036279;28;20206;-86
2023/07/21 08:31:54;;;;;;;2.78;1.35;;;19.60;99.90;;;;;;5037252;28;20182;-83
2023/07/21 08:34:19;;;;;;;2.20;1.35;;;19.70;99.90;;;;;;5037683;28;20166;-86
2023/07/21 08:36:45;;;;;;;2.00;1.13;;;19.70;99.90;;;;;;5036064;28;20558;-85
2023/07/21 08:39:11;;;;;;;2.53;1.30;;;19.80;99.90;;;;;;5036197;28;20183;-84
2023/07/21 08:41:45;;;;;;;1.88;1.30;;;19.70;99.90;;;;;;5036039;28;20277;-85
2023/07/21 08:44:12;;;;;;;1.75;1.25;;;19.60;99.90;;;;;;5036155;28;20173;-87
2023/07/21 08:46:38;;;;;;;3.58;1.45;;;19.70;99.90;;;;;;5035952;28;20209;-84
2023/07/21 08:49:05;;;;;;;4.20;1.40;;;19.80;99.90;;;;;;5035912;28;20548;-85
2023/07/21 08:51:31;;;;;;;1.92;1.20;;;20.00;99.90;;;;;;5035972;28;20213;-84
2023/07/21 08:53:57;;;;;;;2.55;1.27;;;20.20;99.90;;;;;;5035958;28;20174;-84
2023/07/21 08:56:22;;;;;;;3.83;1.20;;;20.40;99.90;;;;;;5036149;28;20261;-85
2023/07/21 08:58:49;;;;;;;2.65;1.50;;;20.50;99.90;;;;;;5035842;28;20186;-86
2023/07/21 09:01:16;;;;;;;4.65;1.23;;;20.60;99.90;;;;;;5035738;28;20178;-85
2023/07/21 09:03:46;;;;;;;3.55;1.38;;;20.60;99.90;;;;;;5035770;28;20206;-89
2023/07/21 09:06:14;;;;;;;1.50;1.33;;;20.80;99.90;;;;;;5035842;28;20218;-87
2023/07/21 09:08:40;;;;;;;3.50;1.20;;;20.80;99.90;;;;;;5036918;28;20203;-86
2023/07/21 09:11:08;;;;;;;2.08;1.10;;;20.90;99.90;;;;;;5036638;28;20256;-84
2023/07/21 09:13:34;;;;;;;4.20;1.25;;;21.00;99.90;;;;;;5035463;28;20577;-84
2023/07/21 09:16:06;;;;;;;1.52;1.33;;;21.10;99.90;;;;;;5035415;28;20234;-87
2023/07/21 09:18:41;;;;;;;2.20;1.60;;;21.30;99.90;;;;;;5035598;28;20174;-84
2023/07/21 09:21:07;;;;;;;3.58;1.70;;;21.30;99.90;;;;;;5035528;28;20216;-84
2023/07/21 09:23:33;;;;;;;1.83;1.40;;;21.40;99.90;;;;;;5036578;28;20225;-87
2023/07/21 09:26:00;;;;;;;1.33;1.23;;;21.40;99.90;;;;;;5035521;28;20186;-86
2023/07/21 09:28:40;;;;;;;2.20;1.48;;;21.40;99.90;;;;;;5035303;28;20261;-85
2023/07/21 09:31:06;;;;;;;2.15;1.67;;;21.50;99.90;;;;;;5035144;28;20182;-84
2023/07/21 09:33:38;;;;;;;1.30;1.10;;;21.50;99.00;;;;;;5034420;28;20252;-84
2023/07/21 09:36:15;;;;;;;1.80;1.30;;;21.70;99.90;;;;;;5035371;28;20202;-87
2023/07/21 09:38:42;;;;;;;2.17;1.40;;;21.70;98.90;;;;;;5035242;28;20179;-86
2023/07/21 09:41:10;;;;;;;1.45;1.05;;;21.60;97.90;;;;;;5034983;28;20175;-85
2023/07/21 09:43:38;;;;;;;3.10;1.30;;;21.70;99.50;;;;;;5035059;28;20599;-84
2023/07/21 09:46:07;;;;;;;2.50;1.10;;;21.70;99.50;;;;;;5036332;28;20198;-86
2023/07/21 09:48:37;;;;;;;1.50;1.10;;;21.40;99.60;;;;;;5034845;28;20262;-86
2023/07/21 09:51:04;;;;;;;7.03;1.50;;;21.30;99.60;;;;;;5034747;28;20570;-86
2023/07/21 09:53:39;;;;;;;1.70;1.30;;;21.30;98.60;;;;;;5034690;28;20498;-87
2023/07/21 09:56:06;;;;;;;1.85;1.20;;;21.20;99.90;;;;;;5034702;28;20174;-85
2023/07/21 09:58:41;;;;;;;1.40;1.30;;;21.00;99.80;;;;;;5034679;28;20201;-84
2023/07/21 10:01:09;;;;;;;3.65;1.60;;;20.70;99.90;;;;;;5034636;28;20170;-84
2023/07/21 10:03:36;;;;;;;2.22;1.10;;;20.60;99.90;;;;;;5034454;28;20258;-84
2023/07/21 10:06:03;;;;;;;1.23;1.10;;;20.40;99.90;;;;;;5034565;28;20213;-83
2023/07/21 10:08:33;;;;;;;1.83;1.20;;;20.20;99.90;;;;;;5035548;28;20697;-86
2023/07/21 10:10:59;;;;;;;1.40;1.10;;;20.20;99.90;;;;;;5034293;28;20284;-84
2023/07/21 10:13:26;;;;;;;1.33;1.10;;;20.10;99.90;;;;;;5034383;28;20217;-84
2023/07/21 10:15:53;;;;;;;1.35;1.05;;;20.10;99.90;;;;;;5034269;28;20230;-84
2023/07/21 10:18:19;;;;;;;3.40;1.60;;;20.10;99.90;;;;;;5034270;28;20244;-85
2023/07/21 10:20:50;;;;;;;2.15;1.10;;;20.30;99.90;;;;;;5034173;28;20186;-84
2023/07/21 10:23:18;;;;;;;2.65;1.38;;;20.60;99.90;;;;;;5034088;28;20178;-83
2023/07/21 10:25:58;;;;;;;3.85;1.45;;;21.00;99.90;;;;;;5034135;28;20179;-83
2023/07/21 10:28:32;;;;;;;3.80;1.40;;;21.30;99.90;;;;;;5034951;28;20606;-84
2023/07/21 10:31:22;;;;;;;2.85;1.58;;;21.50;99.90;;;;;;5033952;28;20182;-84
2023/07/21 10:34:10;;;;;;;2.35;1.25;;;21.70;99.90;;;;;;5035070;28;20178;-84
2023/07/21 10:36:52;;;;;;;3.35;1.23;;;22.10;99.60;;;;;;5033957;28;20202;-84
2023/07/21 10:39:21;;;;;;;2.38;1.33;;;22.40;98.80;;;;;;5033774;28;20171;-83
2023/07/21 10:41:48;;;;;;;1.40;1.05;;;22.50;98.90;;;;;;5033744;28;20178;-87
2023/07/21 10:44:16;;;;;;;2.42;1.08;;;22.70;97.90;;;;;;5035125;28;20201;-86
2023/07/21 10:46:44;;;;;;;1.27;0.93;;;22.80;96.70;;;;;;5032920;28;20493;-88
2023/07/21 10:49:15;;;;;;;2.42;1.00;;;22.90;96.80;;;;;;5033564;28;20254;-90
2023/07/21 10:51:42;;;;;;;2.95;1.13;;;23.00;95.80;;;;;;5035118;28;20170;-90
2023/07/21 10:54:09;;;;;;;3.15;1.20;;;22.80;94.70;;;;;;5033947;28;20181;-87
2023/07/21 10:56:38;;;;;;;1.60;1.08;;;22.60;96.60;;;;;;5033860;28;20182;-87
2023/07/21 10:59:04;;;;;;;1.13;0.75;;;22.60;97.50;;;;;;5033500;28;20191;-85
2023/07/21 11:01:31;;;;;;;1.50;1.10;;;22.70;98.60;;;;;;5034667;28;20174;-84
2023/07/21 11:03:58;;;;;;;2.08;1.10;;;22.60;98.50;;;;;;5033486;28;20241;-84
2023/07/21 11:06:25;;;;;;;1.10;0.93;;;22.60;98.30;;;;;;5034754;28;20594;-85
2023/07/21 11:08:50;;;;;;;1.60;1.00;;;22.40;98.20;;;;;;5033173;28;20594;-85
2023/07/21 11:11:16;;;;;;;2.88;1.02;;;22.50;97.40;;;;;;5034705;28;20273;-85
2023/07/21 11:13:42;;;;;;;1.00;0.80;;;22.40;95.40;;;;;;5033338;28;20178;-86
2023/07/21 11:16:09;;;;;;;4.57;1.33;;;22.10;96.20;;;;;;5033278;28;20229;-87
2023/07/21 11:18:35;;;;;;;1.60;1.08;;;22.00;98.00;;;;;;5033276;28;20256;-87
2023/07/21 11:21:01;;;;;;;2.83;0.90;;;21.80;98.70;;;;;;5033306;28;20542;-86
2023/07/21 11:23:27;;;;;;;2.25;1.20;;;21.70;99.90;;;;;;5032972;28;20181;-88
2023/07/21 11:26:10;;;;;;;2.90;1.20;;;21.50;98.80;;;;;;5033368;28;20265;-88
2023/07/21 11:28:41;;;;;;;1.92;1.20;;;21.20;99.10;;;;;;5033170;28;20178;-85
2023/07/21 11:31:14;;;;;;;2.65;1.38;;;21.00;99.90;;;;;;5032888;28;20552;-85
2023/07/21 11:33:49;;;;;;;1.40;1.30;;;20.70;99.90;;;;;;5032833;28;20197;-84
2023/07/21 11:36:17;;;;;;;1.83;1.25;;;20.40;99.50;;;;;;5034563;28;20193;-85
2023/07/21 11:39:06;;;;;;;1.20;1.02;;;20.20;99.90;;;;;;5033026;28;20175;-85
2023/07/21 11:41:39;;;;;;;3.35;1.10;;;20.10;99.90;;;;;;5034106;28;20155;-84
2023/07/21 11:44:16;;;;;;;3.72;1.30;;;20.00;99.90;;;;;;5033003;28;20217;-85
2023/07/21 11:46:42;;;;;;;4.82;1.92;;;20.00;99.90;;;;;;5033083;28;20491;-87
2023/07/21 11:49:14;;;;;;;1.88;1.73;;;19.80;99.90;;;;;;5032974;28;20209;-85
2023/07/21 11:51:48;;;;;;;5.60;2.05;;;19.40;99.90;;;;;;5032990;28;20174;-84
2023/07/21 11:54:26;;;;;;;1.70;1.60;;;19.10;99.90;;;;;;5034151;28;20621;-87
2023/07/21 11:56:54;;;;;;;2.30;1.60;;;18.80;99.90;;;;;;5034115;28;20170;-87
2023/07/21 11:59:21;;;;;;;3.33;1.50;;;18.60;99.90;;;;;;5036723;28;20622;-94
2023/07/21 12:01:47;;;;;;;2.80;1.63;;;18.50;99.90;;;;;;5037382;28;20526;-90
2023/07/21 12:04:13;;;;;;;3.15;1.70;;;18.30;99.90;;;;;;5038215;28;20596;-93
2023/07/21 12:06:40;;;;;;;7.03;2.10;;;18.30;99.90;;;;;;5037241;28;20174;-91
2023/07/21 12:09:07;;;;;;;2.03;1.63;;;18.20;99.90;;;;;;5037104;28;20202;-92
2023/07/21 12:11:42;;;;;;;2.40;1.70;;;18.20;99.90;;;;;;5037108;28;20182;-95
2023/07/21 12:14:09;;;;;;;2.30;1.92;;;18.20;99.90;;;;;;5041521;28;20166;-95
2023/07/21 12:16:35;;;;;;;1.83;1.40;;;18.10;99.90;;;;;;5046356;28;20233;-92
2023/07/21 12:19:03;;;;;;;2.08;1.80;;;18.10;99.90;;;;;;5041653;28;20359;-94
2023/07/21 12:21:30;;;;;;;2.88;1.63;;;18.10;99.90;;;;;;5037283;28;20633;-94
2023/07/21 12:23:57;;;;;;;1.60;1.50;;;18.30;99.90;;;;;;5037057;28;20518;-95
2023/07/21 12:26:24;;;;;;;2.30;1.63;;;18.40;99.90;;;;;;5038125;28;20613;-94
2023/07/21 12:28:50;;;;;;;1.75;1.40;;;18.70;99.90;;;;;;5037391;28;20210;-93
2023/07/21 12:31:17;;;;;;;1.88;1.20;;;18.80;99.90;;;;;;5021079;28;20190;-92
2023/07/21 12:33:47;;;;;;;2.60;1.58;;;19.00;99.90;;;;;;5039266;28;20189;-93
2023/07/21 12:36:20;;;;;;;2.15;1.30;;;19.30;99.90;;;;;;5036804;28;20178;-93
2023/07/21 12:38:46;;;;;;;2.40;1.33;;;19.40;99.90;;;;;;5038716;28;20190;-93
2023/07/21 12:41:13;;;;;;;2.97;1.70;;;19.60;99.90;;;;;;5039689;28;20220;-96
2023/07/21 12:43:39;;;;;;;2.53;1.33;;;19.80;99.90;;;;;;5037483;28;20272;-92
2023/07/21 12:46:05;;;;;;;2.50;1.50;;;19.80;99.90;;;;;;5036963;28;20217;-94
2023/07/21 12:48:33;;;;;;;2.97;1.50;;;20.00;99.90;;;;;;5036324;28;20652;-95
2023/07/21 12:51:00;;;;;;;3.50;1.55;;;20.00;99.90;;;;;;5036340;28;20760;-92